CST,Max TemperatureF,Mean TemperatureF,Min TemperatureF,Max Dew PointF,MeanDew PointF,Min DewpointF,Max Humidity, Mean Humidity, Min Humidity, Max Sea Level PressureIn, Mean Sea Level PressureIn, Min Sea Level PressureIn, Max VisibilityMiles, Mean VisibilityMiles, Min VisibilityMiles, Max Wind SpeedMPH, Mean Wind SpeedMPH, Max Gust SpeedMPH,PrecipitationIn, CloudCover, Events, WindDirDegrees
2012-12-1,37,32,28,37,34,27,100,98,92,30.22,29.94,29.75,8,1,0,12,4,18,0.00,8,Fog,150
2012-12-2,39,37,35,37,36,34,100,95,82,30.04,29.90,29.76,7,4,1,12,3,,0.00,8,Rain,278
2012-12-3,55,46,37,54,45,34,100,94,68,30.02,29.74,29.57,10,3,0,14,9,25,0.08,7,Fog-Rain,173
2012-12-4,42,33,24,34,20,8,73,59,40,30.29,30.00,29.74,10,10,10,25,12,32,0.00,2,,291
2012-12-5,30,26,21,23,17,12,80,68,51,30.46,30.33,30.12,10,10,9,12,8,,0.00,4,Snow,165
2012-12-6,39,34,28,34,29,23,93,81,70,30.13,29.90,29.75,10,9,3,17,12,24,0.00,8,Rain-Snow,196
2012-12-7,33,30,26,26,22,19,88,75,61,30.04,29.97,29.86,10,9,2,10,6,18,0.00,7,Snow,330
2012-12-8,32,22,12,23,19,10,100,85,59,30.22,30.05,29.97,10,6,0,12,3,,0.00,5,Fog-Snow,330
2012-12-9,28,20,12,25,21,10,93,86,74,30.25,29.98,29.77,10,4,1,9,4,,0.00,7,Snow,49
2012-12-10,28,24,19,21,19,17,93,78,66,29.90,29.81,29.70,10,10,4,13,6,18,0.00,7,Snow,344
2012-12-11,24,21,18,19,15,10,89,78,69,30.02,29.86,29.74,10,10,7,14,6,20,0.00,8,Snow,205
2012-12-12,35,22,9,26,16,6,92,78,68,30.20,30.10,30.04,10,10,7,13,7,23,0.00,6,,180
2012-12-13,37,30,24,26,23,20,93,73,54,30.13,30.04,29.98,10,10,8,8,5,,0.00,3,,176
2012-12-14,30,28,25,27,24,21,93,82,78,30.26,30.19,30.08,10,10,10,8,5,,0.00,8,,92
2012-12-15,37,34,30,36,33,28,100,94,86,30.08,29.78,29.52,10,4,1,12,8,17,0.09,8,Rain-Snow,117
2012-12-16,37,35,33,36,34,30,100,94,81,29.62,29.54,29.49,10,6,0,10,3,,0.00,8,Fog-Rain,299
2012-12-17,33,30,27,30,23,20,89,79,72,29.72,29.67,29.61,10,10,9,12,7,,0.00,8,,314
2012-12-18,28,23,18,22,19,15,92,78,69,29.83,29.74,29.66,10,10,10,8,3,,0.00,6,,345
2012-12-19,33,22,12,24,19,9,88,80,64,30.08,29.99,29.86,10,10,10,10,1,,0.00,5,,253
2012-12-20,32,30,28,30,27,23,93,88,78,29.99,29.66,29.47,10,3,0,21,8,33,0.06,8,Fog-Snow,10
2012-12-21,30,26,21,26,18,15,85,78,74,30.11,29.92,29.59,10,9,3,26,22,46,0.00,7,Snow,327
2012-12-22,28,20,12,19,15,9,88,78,58,30.12,30.01,29.84,10,10,10,15,7,22,0.00,5,,301
2012-12-23,24,14,3,19,10,0,87,76,63,30.07,30.02,29.91,10,10,5,20,11,24,0.00,4,Snow,322
2012-12-24,23,14,6,16,11,3,88,79,68,30.18,30.03,29.93,10,10,10,12,3,,0.00,8,,325
2012-12-25,21,10,-2,12,8,-6,84,76,63,30.46,30.35,30.19,10,10,7,12,6,,0.00,4,Snow,339
2012-12-26,21,8,-5,18,11,-11,89,83,75,30.41,30.27,30.16,10,9,2,12,3,20,0.00,6,Snow,338
2012-12-27,21,20,19,15,14,13,85,75,68,30.27,30.22,30.13,10,10,10,12,8,,0.00,8,,352
2012-12-28,25,22,16,20,17,13,93,84,75,30.19,30.09,29.98,10,9,4,6,3,,0.00,8,Snow,350
2012-12-29,25,18,10,19,15,8,92,80,68,30.07,29.99,29.91,10,9,2,8,3,,0.00,8,Snow,298
2012-12-30,21,18,15,15,11,7,81,71,60,30.19,30.08,29.87,10,10,10,9,6,,0.00,5,,226
2012-12-31,25,16,7,18,8,1,84,67,57,30.14,29.97,29.78,10,10,7,18,10,28,0.00,6,Snow,310